createdAt,value
2023-03-26T00:02:41.735Z,52.57
2023-03-26T00:07:43.227Z,53.97
2023-03-26T00:12:44.670Z,55.52
2023-03-26T00:17:46.554Z,55.96
2023-03-26T00:22:48.058Z,55.51
2023-03-26T00:27:50.203Z,54.35
2023-03-26T00:32:53.624Z,53.54
2023-03-26T00:37:55.558Z,54.30
2023-03-26T00:42:57.021Z,55.29
2023-03-26T00:47:58.499Z,55.49
2023-03-26T00:52:59.966Z,55.70
2023-03-26T00:58:01.692Z,55.10
2023-03-26T01:03:04.402Z,56.09
2023-03-26T01:08:29.072Z,56.91
2023-03-26T01:13:44.604Z,58.36
2023-03-26T01:30:54.764Z,59.31
2023-03-26T01:36:42.842Z,58.99
2023-03-26T01:54:58.322Z,60.49
2023-03-26T02:00:22.478Z,59.43
2023-03-26T02:05:32.073Z,58.08
2023-03-26T02:10:35.912Z,57.09
2023-03-26T02:15:37.553Z,56.20
2023-03-26T02:20:39.015Z,54.60
2023-03-26T02:25:41.951Z,52.10
2023-03-26T02:30:45.589Z,51.04
2023-03-26T02:35:47.109Z,50.65
2023-03-26T02:40:48.594Z,49.93
2023-03-26T02:45:50.146Z,49.13
2023-03-26T02:50:54.489Z,48.85
2023-03-26T02:55:57.120Z,48.54
2023-03-26T03:00:58.761Z,48.33
2023-03-26T03:06:00.254Z,47.41
2023-03-26T03:11:15.603Z,47.28
2023-03-26T03:16:17.185Z,45.77
2023-03-26T03:21:18.671Z,46.45
2023-03-26T03:26:21.825Z,46.24
2023-03-26T03:31:24.688Z,47.13
2023-03-26T03:36:27.931Z,47.14
2023-03-26T03:41:29.653Z,46.72
2023-03-26T03:46:31.125Z,46.17
2023-03-26T03:51:32.695Z,46.63
2023-03-26T03:56:34.187Z,46.40
2023-03-26T04:01:35.715Z,46.00
2023-03-26T04:06:37.161Z,45.46
2023-03-26T04:11:38.625Z,45.44
2023-03-26T04:16:40.277Z,45.38
2023-03-26T04:21:42.744Z,45.10
2023-03-26T04:26:44.208Z,44.70
2023-03-26T04:31:47.054Z,44.46
2023-03-26T04:36:48.693Z,45.37
2023-03-26T04:41:50.203Z,45.20
2023-03-26T04:46:55.107Z,45.15
2023-03-26T04:51:56.688Z,46.18
2023-03-26T04:56:59.759Z,45.72
2023-03-26T05:02:02.095Z,44.85
2023-03-26T05:07:03.588Z,45.08
2023-03-26T05:12:07.526Z,46.62
2023-03-26T05:17:10.942Z,45.89
2023-03-26T05:22:12.526Z,44.73
2023-03-26T05:27:16.771Z,44.33
2023-03-26T05:32:18.232Z,44.66
2023-03-26T05:37:20.368Z,44.25
2023-03-26T05:42:21.909Z,44.75
2023-03-26T05:47:23.432Z,44.78
2023-03-26T05:52:25.086Z,44.74
2023-03-26T05:57:29.438Z,44.11
2023-03-26T06:02:31.570Z,43.71
2023-03-26T06:07:34.088Z,43.50
2023-03-26T06:12:36.867Z,43.75
2023-03-26T06:17:38.366Z,43.07
2023-03-26T06:22:39.835Z,42.96
2023-03-26T06:27:41.330Z,42.17
2023-03-26T06:32:42.866Z,42.63
2023-03-26T06:37:45.386Z,42.79
2023-03-26T06:43:08.557Z,43.31
2023-03-26T06:48:08.333Z,44.02
2023-03-26T06:53:10.539Z,42.98
2023-03-26T06:58:12.446Z,42.10
2023-03-26T07:03:14.004Z,42.74
2023-03-26T07:08:15.930Z,41.74
2023-03-26T07:13:17.388Z,42.29
2023-03-26T07:18:18.832Z,42.68
2023-03-26T07:23:21.245Z,41.26
2023-03-26T07:28:25.829Z,40.82
2023-03-26T07:33:47.980Z,41.00
2023-03-26T07:39:05.069Z,40.18
2023-03-26T07:44:21.923Z,40.09
2023-03-26T07:49:23.606Z,40.16
2023-03-26T07:54:25.469Z,40.63
2023-03-26T07:59:34.152Z,39.47
2023-03-26T08:05:30.884Z,39.46
2023-03-26T08:11:03.665Z,39.30
2023-03-26T08:16:36.800Z,39.17
2023-03-26T08:21:42.095Z,38.54
2023-03-26T08:26:55.120Z,38.57
2023-03-26T08:31:57.458Z,37.85
2023-03-26T08:36:58.972Z,37.09
2023-03-26T08:42:19.605Z,37.55
2023-03-26T08:47:55.751Z,37.33
2023-03-26T08:53:20.133Z,36.93
2023-03-26T08:58:40.377Z,37.32
2023-03-26T09:04:17.699Z,37.08
2023-03-26T09:09:42.630Z,36.89
2023-03-26T09:15:08.484Z,36.37
2023-03-26T09:20:31.823Z,36.47
2023-03-26T09:25:56.718Z,35.58
2023-03-26T09:31:16.806Z,35.81
2023-03-26T09:36:35.902Z,34.88
2023-03-26T09:42:05.015Z,35.25
2023-03-26T09:47:48.267Z,35.38
2023-03-26T09:52:57.123Z,35.43
2023-03-26T09:58:14.025Z,35.12
2023-03-26T10:03:33.965Z,34.76
2023-03-26T10:08:39.195Z,34.89
2023-03-26T10:14:04.100Z,35.94
2023-03-26T10:19:24.368Z,34.93
2023-03-26T10:25:06.332Z,34.65
2023-03-26T10:30:26.432Z,34.47
2023-03-26T10:35:55.859Z,34.78
2023-03-26T10:41:08.987Z,34.79
2023-03-26T10:46:35.521Z,34.19
2023-03-26T10:51:54.725Z,33.38
2023-03-26T10:56:56.480Z,34.11
2023-03-26T11:02:19.585Z,34.06
2023-03-26T11:07:39.335Z,33.69
2023-03-26T11:12:46.450Z,33.68
2023-03-26T11:17:50.794Z,33.57
2023-03-26T11:23:01.175Z,33.36
2023-03-26T11:28:16.376Z,32.76
2023-03-26T11:33:26.690Z,32.40
2023-03-26T11:38:40.148Z,33.24
2023-03-26T11:43:41.620Z,32.97
2023-03-26T11:48:58.018Z,32.65
2023-03-26T11:54:03.080Z,32.77
2023-03-26T11:59:13.852Z,33.42
2023-03-26T12:04:15.762Z,32.04
2023-03-26T12:09:17.898Z,32.84
2023-03-26T12:14:22.057Z,32.00
2023-03-26T12:19:24.611Z,32.20
2023-03-26T12:24:29.866Z,33.86
2023-03-26T12:29:34.163Z,33.24
2023-03-26T12:34:36.237Z,31.57
2023-03-26T12:40:08.705Z,32.59
2023-03-26T12:45:01.382Z,32.39
2023-03-26T12:50:03.685Z,32.71
2023-03-26T12:55:20.538Z,33.08
2023-03-26T13:00:42.997Z,34.49
2023-03-26T13:05:55.766Z,34.40
2023-03-26T13:11:05.484Z,33.66
2023-03-26T13:16:27.513Z,33.17
2023-03-26T13:21:28.846Z,32.81
2023-03-26T13:26:51.941Z,33.15
2023-03-26T13:32:10.855Z,33.13
2023-03-26T13:37:18.163Z,33.26
2023-03-26T13:42:41.896Z,35.28
2023-03-26T13:47:46.298Z,37.20
2023-03-26T13:53:09.532Z,33.12
2023-03-26T13:58:14.632Z,34.96
2023-03-26T14:03:20.988Z,35.61
2023-03-26T14:08:32.719Z,36.93
2023-03-26T14:13:47.459Z,35.03
2023-03-26T14:19:10.781Z,35.83
2023-03-26T14:24:34.225Z,35.89
2023-03-26T14:29:56.263Z,35.66
2023-03-26T14:35:17.182Z,35.15
2023-03-26T14:40:25.173Z,36.44
2023-03-26T14:45:48.006Z,36.69
2023-03-26T14:50:58.743Z,34.84
2023-03-26T14:56:21.214Z,34.55
2023-03-26T15:01:26.670Z,35.99
2023-03-26T15:06:46.677Z,37.40
2023-03-26T15:12:12.183Z,37.65
2023-03-26T15:17:36.627Z,37.73
2023-03-26T15:23:21.000Z,38.21
2023-03-26T15:28:37.269Z,36.91
2023-03-26T15:33:51.518Z,37.77
2023-03-26T15:39:17.664Z,36.98
2023-03-26T15:44:50.886Z,36.21
2023-03-26T15:50:26.127Z,38.06
2023-03-26T15:55:36.561Z,38.47
2023-03-26T16:01:22.821Z,36.52
2023-03-26T16:06:48.164Z,37.67
2023-03-26T16:12:04.129Z,38.67
2023-03-26T16:17:06.448Z,38.55
2023-03-26T16:22:14.498Z,39.02
2023-03-26T16:27:16.081Z,36.81
2023-03-26T16:32:41.072Z,38.49
2023-03-26T16:37:51.629Z,36.69
2023-03-26T16:43:15.184Z,38.07
2023-03-26T16:48:36.827Z,37.88
2023-03-26T16:53:46.432Z,39.41
2023-03-26T16:58:56.042Z,38.36
2023-03-26T17:04:01.691Z,36.64
2023-03-26T17:09:21.949Z,38.93
2023-03-26T17:14:39.746Z,38.52
2023-03-26T17:20:14.491Z,39.47
2023-03-26T17:25:34.421Z,38.43
2023-03-26T17:30:44.620Z,39.43
2023-03-26T17:35:47.106Z,38.31
2023-03-26T17:40:58.743Z,39.40
2023-03-26T17:46:02.607Z,39.82
2023-03-26T17:51:31.633Z,38.72
2023-03-26T17:56:33.271Z,39.00
2023-03-26T18:01:35.995Z,38.99
2023-03-26T18:06:54.211Z,35.63
2023-03-26T18:12:19.009Z,37.06
2023-03-26T18:17:20.557Z,38.19
2023-03-26T18:22:26.548Z,39.59
2023-03-26T18:27:36.812Z,39.31
2023-03-26T18:32:41.023Z,39.26
2023-03-26T18:37:44.198Z,38.53
2023-03-26T18:42:55.011Z,40.12
2023-03-26T18:47:58.182Z,41.54
2023-03-26T18:53:00.466Z,42.60
2023-03-26T18:58:18.909Z,42.16
2023-03-26T19:03:21.902Z,41.30
2023-03-26T19:08:23.902Z,41.69
2023-03-26T19:13:25.417Z,40.58
2023-03-26T19:18:26.965Z,40.71
2023-03-26T19:23:32.172Z,42.38
2023-03-26T19:28:49.225Z,41.32
2023-03-26T19:34:04.039Z,40.67
2023-03-26T19:39:11.965Z,39.93
2023-03-26T19:44:27.167Z,38.48
2023-03-26T19:49:31.953Z,40.43
2023-03-26T19:55:04.982Z,41.02
2023-03-26T20:00:18.963Z,42.18
2023-03-26T20:05:25.980Z,39.75
2023-03-26T20:10:27.568Z,40.71
2023-03-26T20:15:30.966Z,40.17
2023-03-26T20:20:34.178Z,39.50
2023-03-26T20:25:35.667Z,39.30
2023-03-26T20:30:38.031Z,41.83
2023-03-26T20:35:39.717Z,44.29
2023-03-26T20:40:41.196Z,42.43
2023-03-26T20:45:42.665Z,43.92
2023-03-26T20:51:01.600Z,43.06
2023-03-26T20:56:03.488Z,40.46
2023-03-26T21:01:05.640Z,41.75
2023-03-26T21:06:14.910Z,42.09
2023-03-26T21:11:26.650Z,40.53
2023-03-26T21:16:28.848Z,40.80
2023-03-26T21:21:47.534Z,41.52
2023-03-26T21:26:50.600Z,40.80
2023-03-26T21:31:54.039Z,40.43
2023-03-26T21:36:55.969Z,42.33
2023-03-26T21:42:05.249Z,39.81
2023-03-26T21:47:09.768Z,39.94
2023-03-26T21:52:15.396Z,40.16
2023-03-26T21:57:17.644Z,39.88
2023-03-26T22:02:29.012Z,44.04
2023-03-26T22:07:38.556Z,46.20
2023-03-26T22:12:40.003Z,45.39
2023-03-26T22:17:41.867Z,42.13
2023-03-26T22:22:48.769Z,41.57
2023-03-26T22:27:50.703Z,42.75
2023-03-26T22:32:52.207Z,44.33
2023-03-26T22:38:00.777Z,42.43
2023-03-26T22:43:02.777Z,43.17
2023-03-26T22:48:04.748Z,45.59
2023-03-26T22:53:06.487Z,47.00
2023-03-26T22:58:08.049Z,45.90
2023-03-26T23:03:09.538Z,43.65
2023-03-26T23:08:11.675Z,43.90
2023-03-26T23:13:13.147Z,43.59
2023-03-26T23:18:14.614Z,42.74
2023-03-26T23:23:16.087Z,44.50
2023-03-26T23:28:17.854Z,45.19
2023-03-26T23:33:20.464Z,44.34
2023-03-26T23:38:22.252Z,46.03
2023-03-26T23:43:24.148Z,48.89
2023-03-26T23:48:25.819Z,50.32
2023-03-26T23:53:28.986Z,51.19
2023-03-26T23:58:30.651Z,49.49
